createdAt,value
2024-05-09T00:00:22.412Z,14.68
2024-05-09T00:01:17.396Z,14.65
2024-05-09T00:02:16.015Z,14.62
2024-05-09T00:03:15.933Z,14.60
2024-05-09T00:04:15.936Z,14.59
2024-05-09T00:05:16.547Z,14.54
2024-05-09T00:06:16.053Z,14.51
2024-05-09T00:07:15.853Z,14.50
2024-05-09T00:08:15.880Z,14.48
2024-05-09T00:09:15.834Z,14.44
2024-05-09T00:10:25.196Z,14.41
2024-05-09T00:11:18.257Z,14.37
2024-05-09T00:12:15.942Z,14.36
2024-05-09T00:13:15.824Z,14.32
2024-05-09T00:14:15.904Z,14.28
2024-05-09T00:15:16.412Z,14.25
2024-05-09T00:16:15.791Z,14.23
2024-05-09T00:17:15.787Z,14.18
2024-05-09T00:18:15.918Z,14.17
2024-05-09T00:19:15.943Z,14.15
2024-05-09T00:20:20.531Z,14.12
2024-05-09T00:21:17.726Z,14.12
2024-05-09T00:22:15.809Z,14.11
2024-05-09T00:23:15.670Z,14.11
2024-05-09T00:24:15.649Z,14.07
2024-05-09T00:25:15.731Z,14.05
2024-05-09T00:26:15.639Z,14.00
2024-05-09T00:27:16.178Z,13.97
2024-05-09T00:28:15.618Z,13.96
2024-05-09T00:29:15.559Z,13.92
2024-05-09T00:30:24.159Z,13.92
2024-05-09T00:31:17.063Z,13.89
2024-05-09T00:32:16.243Z,13.83
2024-05-09T00:33:15.697Z,13.81
2024-05-09T00:34:15.623Z,13.77
2024-05-09T00:35:15.614Z,13.75
2024-05-09T00:36:15.592Z,13.72
2024-05-09T00:37:15.480Z,13.71
2024-05-09T00:38:16.958Z,13.70
2024-05-09T00:39:15.446Z,13.68
2024-05-09T00:40:22.875Z,13.67
2024-05-09T00:41:19.643Z,13.63
2024-05-09T00:42:15.415Z,13.62
2024-05-09T00:43:15.850Z,13.60
2024-05-09T00:44:15.468Z,13.57
2024-05-09T00:45:15.386Z,13.56
2024-05-09T00:46:15.411Z,13.53
2024-05-09T00:47:15.615Z,13.52
2024-05-09T00:48:18.544Z,13.50
2024-05-09T00:49:17.546Z,13.49
2024-05-09T00:50:19.432Z,13.46
2024-05-09T00:51:16.886Z,13.44
2024-05-09T00:52:15.353Z,13.42
2024-05-09T00:53:15.925Z,13.41
2024-05-09T00:54:15.480Z,13.41
2024-05-09T00:55:15.830Z,13.41
2024-05-09T00:56:15.300Z,13.39
2024-05-09T00:57:15.326Z,13.38
2024-05-09T00:58:15.186Z,13.38
2024-05-09T00:59:15.871Z,13.37
2024-05-09T01:00:26.119Z,13.33
2024-05-09T01:01:16.845Z,13.31
2024-05-09T01:02:15.363Z,13.30
2024-05-09T01:03:15.341Z,13.31
2024-05-09T01:04:15.177Z,13.28
2024-05-09T01:05:15.408Z,13.28
2024-05-09T01:06:15.583Z,13.25
2024-05-09T01:07:15.150Z,13.23
2024-05-09T01:08:15.228Z,13.22
2024-05-09T01:09:15.053Z,13.20
2024-05-09T01:10:21.176Z,13.16
2024-05-09T01:11:17.897Z,13.15
2024-05-09T01:12:15.233Z,13.13
2024-05-09T01:15:20.506Z,13.11
2024-05-09T01:16:20.923Z,13.11
2024-05-09T01:17:20.752Z,13.12
2024-05-09T01:18:20.704Z,13.11
2024-05-09T01:19:20.568Z,13.11
2024-05-09T01:20:31.545Z,13.11
2024-05-09T01:21:22.394Z,13.12
2024-05-09T01:22:20.576Z,13.12
2024-05-09T01:23:20.415Z,13.12
2024-05-09T01:24:20.479Z,13.11
2024-05-09T01:25:20.383Z,13.12
2024-05-09T01:26:20.410Z,13.13
2024-05-09T01:27:20.763Z,13.12
2024-05-09T01:28:20.460Z,13.15
2024-05-09T01:29:20.408Z,13.13
2024-05-09T01:30:24.556Z,13.12
2024-05-09T01:31:21.874Z,13.11
2024-05-09T01:32:20.729Z,13.08
2024-05-09T01:33:20.681Z,13.08
2024-05-09T01:34:20.366Z,13.05
2024-05-09T01:35:20.281Z,13.05
2024-05-09T01:36:20.232Z,13.04
2024-05-09T01:37:20.690Z,13.04
2024-05-09T01:38:20.415Z,13.04
2024-05-09T01:39:20.330Z,13.04
2024-05-09T01:40:25.363Z,13.04
2024-05-09T01:41:21.758Z,13.04
2024-05-09T01:42:20.609Z,13.03
2024-05-09T01:43:20.246Z,13.01
2024-05-09T01:44:20.288Z,13.01
2024-05-09T01:45:20.143Z,13.00
2024-05-09T01:46:20.142Z,12.98
2024-05-09T01:47:20.272Z,12.95
2024-05-09T01:48:20.811Z,12.95
2024-05-09T01:49:21.967Z,12.94
2024-05-09T01:50:33.015Z,12.93
2024-05-09T01:51:21.760Z,12.93
2024-05-09T01:52:20.179Z,12.91
2024-05-09T01:53:20.584Z,12.91
2024-05-09T01:54:20.093Z,12.90
2024-05-09T01:55:20.202Z,12.90
2024-05-09T01:56:20.002Z,12.87
2024-05-09T01:57:20.020Z,12.85
2024-05-09T01:58:20.427Z,12.82
2024-05-09T01:59:19.990Z,12.79
2024-05-09T02:00:30.214Z,12.76
2024-05-09T02:01:21.524Z,12.76
2024-05-09T02:02:20.773Z,12.73
2024-05-09T02:03:20.095Z,12.70
2024-05-09T02:04:20.456Z,12.68
2024-05-09T02:05:20.092Z,12.67
2024-05-09T02:06:19.871Z,12.67
2024-05-09T02:07:19.892Z,12.62
2024-05-09T02:08:20.136Z,12.62
2024-05-09T02:09:20.231Z,12.61
2024-05-09T02:10:26.182Z,12.58
2024-05-09T02:11:21.421Z,12.57
2024-05-09T02:12:20.725Z,12.55
2024-05-09T02:13:19.841Z,12.54
2024-05-09T02:14:19.956Z,12.54
2024-05-09T02:15:20.247Z,12.50
2024-05-09T02:16:19.718Z,12.49
2024-05-09T02:17:19.979Z,12.46
2024-05-09T02:18:19.844Z,12.45
2024-05-09T02:19:19.868Z,12.43
2024-05-09T02:20:29.995Z,12.40
2024-05-09T02:21:21.694Z,12.40
2024-05-09T02:22:20.355Z,12.40
2024-05-09T02:23:19.838Z,12.40
2024-05-09T02:24:19.764Z,12.39
2024-05-09T02:25:19.610Z,12.36
2024-05-09T02:26:19.655Z,12.36
2024-05-09T02:27:20.051Z,12.32
2024-05-09T02:28:19.775Z,12.32
2024-05-09T02:29:19.797Z,12.31
2024-05-09T02:30:29.868Z,12.32
2024-05-09T02:31:21.199Z,12.29
2024-05-09T02:32:19.725Z,12.28
2024-05-09T02:33:20.333Z,12.27
2024-05-09T02:34:19.615Z,12.28
2024-05-09T02:35:19.666Z,12.25
2024-05-09T02:36:19.583Z,12.25
2024-05-09T02:37:19.502Z,12.24
2024-05-09T02:38:19.558Z,12.24
2024-05-09T02:39:19.881Z,12.22
2024-05-09T02:40:25.643Z,12.21
2024-05-09T02:41:21.042Z,12.20
2024-05-09T02:42:19.538Z,12.20
2024-05-09T02:43:19.448Z,12.18
2024-05-09T02:44:19.967Z,12.18
2024-05-09T02:45:19.612Z,12.15
2024-05-09T02:46:19.369Z,12.15
2024-05-09T02:47:19.559Z,12.15
2024-05-09T02:48:19.640Z,12.12
2024-05-09T02:49:19.927Z,12.12
2024-05-09T02:50:26.544Z,12.12
2024-05-09T02:51:21.291Z,12.10
2024-05-09T02:52:19.303Z,12.10
2024-05-09T02:53:19.348Z,12.07
2024-05-09T02:54:19.339Z,12.06
2024-05-09T02:55:19.764Z,12.04
2024-05-09T02:56:19.475Z,12.06
2024-05-09T02:57:19.260Z,12.04
2024-05-09T02:58:19.296Z,12.03
2024-05-09T02:59:19.376Z,12.02
2024-05-09T03:00:26.277Z,12.00
2024-05-09T03:01:20.840Z,12.00
2024-05-09T03:02:19.251Z,12.02
2024-05-09T03:03:19.478Z,12.02
2024-05-09T03:04:19.239Z,12.03
2024-05-09T03:05:19.330Z,12.03
2024-05-09T03:06:19.594Z,12.04
2024-05-09T03:08:21.681Z,12.04
2024-05-09T03:09:21.646Z,12.02
2024-05-09T03:10:25.679Z,12.00
2024-05-09T03:11:23.533Z,11.99
2024-05-09T03:12:21.662Z,11.97
2024-05-09T03:13:21.540Z,11.95
2024-05-09T03:14:21.640Z,11.91
2024-05-09T03:15:21.661Z,11.90
2024-05-09T03:16:22.005Z,11.84
2024-05-09T03:17:21.624Z,11.83
2024-05-09T03:18:21.718Z,11.80
2024-05-09T03:19:21.763Z,11.77
2024-05-09T03:20:27.327Z,11.77
2024-05-09T03:21:23.499Z,11.75
2024-05-09T03:22:21.440Z,11.75
2024-05-09T03:23:21.458Z,11.72
2024-05-09T03:24:21.592Z,11.70
2024-05-09T03:25:21.389Z,11.69
2024-05-09T03:26:21.875Z,11.69
2024-05-09T03:27:21.375Z,11.66
2024-05-09T03:28:21.361Z,11.65
2024-05-09T03:29:22.097Z,11.60
2024-05-09T03:30:29.635Z,11.60
2024-05-09T03:31:22.829Z,11.57
2024-05-09T03:32:21.827Z,11.57
2024-05-09T03:33:21.831Z,11.57
2024-05-09T03:34:21.354Z,11.54
2024-05-09T03:35:21.410Z,11.52
2024-05-09T03:36:21.318Z,11.54
2024-05-09T03:37:21.723Z,11.54
2024-05-09T03:38:21.350Z,11.54
2024-05-09T03:39:21.236Z,11.54
2024-05-09T03:40:26.324Z,11.54
2024-05-09T03:41:22.806Z,11.54
2024-05-09T03:42:21.245Z,11.54
2024-05-09T03:43:21.564Z,11.52
2024-05-09T03:44:21.312Z,11.52
2024-05-09T03:45:21.144Z,11.51
2024-05-09T03:46:21.209Z,11.50
2024-05-09T03:47:21.379Z,11.48
2024-05-09T03:48:21.796Z,11.48
2024-05-09T03:49:21.160Z,11.45
2024-05-09T03:50:26.439Z,11.45
2024-05-09T03:51:22.679Z,11.44
2024-05-09T03:52:21.061Z,11.44
2024-05-09T03:53:22.164Z,11.45
2024-05-09T03:54:21.045Z,11.44
2024-05-09T03:55:21.061Z,11.44
2024-05-09T03:56:21.042Z,11.44
2024-05-09T03:57:21.000Z,11.41
2024-05-09T03:58:21.366Z,11.40
2024-05-09T03:59:20.956Z,11.41
2024-05-09T04:00:30.498Z,11.40
2024-05-09T04:01:22.508Z,11.37
2024-05-09T04:02:21.066Z,11.37
2024-05-09T04:03:21.081Z,11.36
2024-05-09T04:04:21.372Z,11.40
2024-05-09T04:05:20.902Z,11.41
2024-05-09T04:06:20.894Z,11.41
2024-05-09T04:07:20.841Z,11.41
2024-05-09T04:08:20.888Z,11.41
2024-05-09T04:09:21.281Z,11.40
2024-05-09T04:10:27.800Z,11.40
2024-05-09T04:11:22.466Z,11.37
2024-05-09T04:12:20.852Z,11.37
2024-05-09T04:13:20.763Z,11.37
2024-05-09T04:14:21.232Z,11.36
2024-05-09T04:15:21.503Z,11.41
2024-05-09T04:16:20.888Z,11.43
2024-05-09T04:17:20.773Z,11.43
2024-05-09T04:18:20.862Z,11.43
2024-05-09T04:19:20.814Z,11.44
2024-05-09T04:20:32.341Z,11.44
2024-05-09T04:21:22.255Z,11.44
2024-05-09T04:22:20.672Z,11.45
2024-05-09T04:23:20.776Z,11.44
2024-05-09T04:24:20.634Z,11.44
2024-05-09T04:25:20.628Z,11.47
2024-05-09T04:26:21.085Z,11.47
2024-05-09T04:27:20.636Z,11.47
2024-05-09T04:28:20.598Z,11.47
2024-05-09T04:29:20.696Z,11.47
2024-05-09T04:30:26.502Z,11.47
2024-05-09T04:31:22.464Z,11.47
2024-05-09T04:32:20.703Z,11.45
2024-05-09T04:33:20.924Z,11.45
2024-05-09T04:34:20.629Z,11.45
2024-05-09T04:35:20.565Z,11.44
2024-05-09T04:36:20.893Z,11.45
2024-05-09T04:37:20.477Z,11.47
2024-05-09T04:38:20.612Z,11.48
2024-05-09T04:39:20.436Z,11.50
2024-05-09T04:40:28.243Z,11.51
2024-05-09T04:41:22.363Z,11.54
2024-05-09T04:42:20.416Z,11.54
2024-05-09T04:43:20.452Z,11.55
2024-05-09T04:44:20.438Z,11.55
2024-05-09T04:45:20.383Z,11.54
2024-05-09T04:46:20.765Z,11.52
2024-05-09T04:47:20.449Z,11.57
2024-05-09T04:48:20.459Z,11.57
2024-05-09T04:49:20.428Z,11.59
2024-05-09T04:50:29.350Z,11.62
2024-05-09T04:51:21.809Z,11.63
2024-05-09T04:52:20.679Z,11.68
2024-05-09T04:53:20.494Z,11.68
2024-05-09T04:55:20.223Z,11.72
2024-05-09T04:56:20.268Z,11.72
2024-05-09T04:57:20.626Z,11.72
2024-05-09T04:58:23.841Z,11.73
2024-05-09T04:59:20.237Z,11.73
2024-05-09T05:00:28.488Z,11.75
2024-05-09T05:01:21.686Z,11.75
2024-05-09T05:02:20.595Z,11.73
2024-05-09T05:03:20.374Z,11.75
2024-05-09T05:04:20.245Z,11.77
2024-05-09T05:05:20.161Z,11.78
2024-05-09T05:06:20.080Z,11.81
2024-05-09T05:07:20.068Z,11.83
2024-05-09T05:08:20.599Z,11.83
2024-05-09T05:09:20.061Z,11.84
2024-05-09T05:10:25.467Z,11.87
2024-05-09T05:11:21.588Z,11.86
2024-05-09T05:12:20.109Z,11.86
2024-05-09T05:13:21.812Z,11.87
2024-05-09T05:14:20.022Z,11.86
2024-05-09T05:15:19.987Z,11.87
2024-05-09T05:16:19.996Z,11.88
2024-05-09T05:17:20.029Z,11.90
2024-05-09T05:18:20.488Z,11.90
2024-05-09T05:19:20.062Z,11.90
2024-05-09T05:20:27.404Z,11.88
2024-05-09T05:21:21.510Z,11.91
2024-05-09T05:22:19.939Z,11.91
2024-05-09T05:23:20.069Z,11.91
2024-05-09T05:24:20.399Z,11.94
2024-05-09T05:25:19.869Z,11.94
2024-05-09T05:26:19.870Z,11.95
2024-05-09T05:27:19.810Z,11.95
2024-05-09T05:28:19.818Z,11.97
2024-05-09T05:29:20.916Z,11.95
2024-05-09T05:30:25.213Z,11.97
2024-05-09T05:31:21.357Z,11.95
2024-05-09T05:32:20.000Z,11.95
2024-05-09T05:33:20.290Z,11.97
2024-05-09T05:34:20.189Z,11.97
2024-05-09T05:35:19.728Z,11.97
2024-05-09T05:36:19.722Z,12.00
2024-05-09T05:37:19.709Z,12.02
2024-05-09T05:38:23.728Z,12.02
2024-05-09T05:39:21.212Z,12.03
2024-05-09T05:40:28.188Z,12.04
2024-05-09T05:41:21.202Z,12.06
2024-05-09T05:42:19.614Z,12.07
2024-05-09T05:43:19.616Z,12.09
2024-05-09T05:44:19.659Z,12.10
2024-05-09T05:45:19.692Z,12.12
2024-05-09T05:46:19.969Z,12.13
2024-05-09T05:47:19.705Z,12.13
2024-05-09T05:48:19.903Z,12.15
2024-05-09T05:49:19.732Z,12.17
2024-05-09T05:50:27.388Z,12.20
2024-05-09T05:51:21.528Z,12.18
2024-05-09T05:52:19.503Z,12.21
2024-05-09T05:53:19.664Z,12.22
2024-05-09T05:54:19.595Z,12.22
2024-05-09T05:55:19.467Z,12.27
2024-05-09T05:56:19.474Z,12.27
2024-05-09T05:57:19.872Z,12.29
2024-05-09T05:58:19.434Z,12.32
2024-05-09T05:59:19.434Z,12.35
2024-05-09T06:00:29.200Z,12.36
2024-05-09T06:01:20.990Z,12.40
2024-05-09T06:02:19.831Z,12.42
2024-05-09T06:03:19.440Z,12.43
2024-05-09T06:04:19.361Z,12.47
2024-05-09T06:05:19.417Z,12.50
2024-05-09T06:06:19.327Z,12.53
2024-05-09T06:07:19.715Z,12.55
2024-05-09T06:08:19.321Z,12.57
2024-05-09T06:09:19.282Z,12.61
2024-05-09T06:10:25.405Z,12.62
2024-05-09T06:11:20.910Z,12.67
2024-05-09T06:12:19.392Z,12.67
2024-05-09T06:13:19.628Z,12.70
2024-05-09T06:14:19.248Z,12.73
2024-05-09T06:15:19.226Z,12.80
2024-05-09T06:16:19.202Z,12.83
2024-05-09T06:17:19.341Z,12.85
2024-05-09T06:18:19.881Z,12.87
2024-05-09T06:19:19.374Z,12.91
2024-05-09T06:20:24.041Z,12.94
2024-05-09T06:21:20.773Z,12.95
2024-05-09T06:22:19.152Z,12.95
2024-05-09T06:23:19.557Z,12.97
2024-05-09T06:24:19.081Z,13.00
2024-05-09T06:25:19.062Z,12.98
2024-05-09T06:26:19.172Z,12.98
2024-05-09T06:27:19.056Z,12.97
2024-05-09T06:28:19.113Z,13.00
2024-05-09T06:29:19.462Z,13.00
2024-05-09T06:30:26.266Z,13.03
2024-05-09T06:31:20.518Z,13.03
2024-05-09T06:32:19.130Z,13.08
2024-05-09T06:33:19.265Z,13.09
2024-05-09T06:34:19.154Z,13.12
2024-05-09T06:35:19.461Z,13.13
2024-05-09T06:36:18.982Z,13.18
2024-05-09T06:37:18.916Z,13.22
2024-05-09T06:38:18.965Z,13.27
2024-05-09T06:39:18.868Z,13.30
2024-05-09T06:40:25.475Z,13.33
2024-05-09T06:41:20.880Z,13.38
2024-05-09T06:42:18.886Z,13.42
2024-05-09T06:43:19.795Z,13.46
2024-05-09T06:44:18.884Z,13.53
2024-05-09T06:45:18.799Z,13.60
2024-05-09T06:46:19.246Z,13.67
2024-05-09T06:47:18.961Z,13.70
2024-05-09T06:48:19.489Z,13.72
2024-05-09T06:49:18.836Z,13.77
2024-05-09T06:50:23.952Z,13.81
2024-05-09T06:51:20.239Z,13.87
2024-05-09T06:52:19.159Z,13.92
2024-05-09T06:53:18.753Z,13.97
2024-05-09T06:54:18.710Z,14.03
2024-05-09T06:55:18.763Z,14.07
2024-05-09T06:56:18.707Z,14.12
2024-05-09T06:57:18.645Z,14.14
2024-05-09T06:58:19.065Z,14.18
2024-05-09T06:59:18.715Z,14.18
2024-05-09T07:00:27.145Z,14.23
2024-05-09T07:01:20.099Z,14.26
2024-05-09T07:02:18.679Z,14.29
2024-05-09T07:03:19.591Z,14.32
2024-05-09T07:04:19.111Z,14.36
2024-05-09T07:05:18.645Z,14.40
2024-05-09T07:06:18.616Z,14.44
2024-05-09T07:07:18.556Z,14.51
2024-05-09T07:08:18.926Z,14.58
2024-05-09T07:09:18.522Z,14.63
2024-05-09T07:10:25.763Z,14.70
2024-05-09T07:11:20.064Z,14.78
2024-05-09T07:12:18.569Z,14.82
2024-05-09T07:13:18.472Z,14.89
2024-05-09T07:14:18.586Z,14.92
2024-05-09T07:15:18.442Z,15.00
2024-05-09T07:16:18.865Z,15.06
2024-05-09T07:17:18.564Z,15.11
2024-05-09T07:18:19.320Z,15.15
2024-05-09T07:19:18.430Z,15.19
2024-05-09T07:20:23.740Z,15.22
2024-05-09T07:21:20.344Z,15.25
2024-05-09T07:22:18.324Z,15.31
2024-05-09T07:23:18.611Z,15.36
2024-05-09T07:24:18.309Z,15.42
2024-05-09T07:25:18.277Z,15.47
2024-05-09T07:26:18.404Z,15.52
2024-05-09T07:27:18.672Z,15.57
2024-05-09T07:28:18.428Z,15.65
2024-05-09T07:29:18.322Z,15.73
2024-05-09T07:30:23.574Z,15.77
2024-05-09T07:31:19.711Z,15.83
2024-05-09T07:32:18.349Z,15.86
2024-05-09T07:33:19.559Z,15.90
2024-05-09T07:34:18.322Z,15.97
2024-05-09T07:35:18.252Z,16.01
2024-05-09T07:36:18.160Z,16.05
2024-05-09T07:37:18.139Z,16.12
2024-05-09T07:38:18.211Z,16.16
2024-05-09T07:39:18.557Z,16.23
2024-05-09T07:40:28.174Z,16.29
2024-05-09T07:41:19.665Z,16.35
2024-05-09T07:42:18.046Z,16.39
2024-05-09T07:43:18.052Z,16.46
2024-05-09T07:44:18.135Z,16.50
2024-05-09T07:45:40.235Z,16.57
2024-05-09T07:47:14.490Z,16.60
2024-05-09T07:48:29.055Z,16.68
2024-05-09T07:51:31.307Z,16.78
2024-05-09T07:53:30.039Z,16.94
2024-05-09T07:53:38.370Z,17.01
2024-05-09T07:54:19.156Z,17.05
2024-05-09T07:55:18.423Z,17.11
2024-05-09T07:56:19.120Z,17.20
2024-05-09T07:57:18.068Z,17.26
2024-05-09T07:58:17.854Z,17.30
2024-05-09T07:59:17.926Z,17.36
2024-05-09T08:00:23.696Z,17.42
2024-05-09T08:01:20.299Z,17.51
2024-05-09T08:02:17.985Z,17.56
2024-05-09T08:03:17.918Z,17.63
2024-05-09T08:04:17.884Z,17.67
2024-05-09T08:05:17.844Z,17.68
2024-05-09T08:06:17.846Z,17.74
2024-05-09T08:07:18.297Z,17.78
2024-05-09T08:08:17.725Z,17.80
2024-05-09T08:09:21.103Z,17.86
2024-05-09T08:10:22.161Z,17.90
2024-05-09T08:11:19.262Z,17.92
2024-05-09T08:12:18.100Z,17.97
2024-05-09T08:13:17.771Z,18.01
2024-05-09T08:14:17.698Z,18.08
2024-05-09T08:15:17.644Z,18.16
2024-05-09T08:16:17.698Z,18.22
2024-05-09T08:17:18.059Z,18.28
2024-05-09T08:18:17.890Z,18.31
2024-05-09T08:19:17.754Z,18.37
2024-05-09T08:20:26.619Z,18.43
2024-05-09T08:21:19.086Z,18.45
2024-05-09T08:22:18.006Z,18.52
2024-05-09T08:23:17.515Z,18.56
2024-05-09T08:24:17.546Z,18.59
2024-05-09T08:25:17.671Z,18.68
2024-05-09T08:26:17.535Z,18.73
2024-05-09T08:27:17.882Z,18.80
2024-05-09T08:28:17.624Z,18.89
2024-05-09T08:29:17.550Z,18.98
2024-05-09T08:30:24.712Z,19.07
2024-05-09T08:31:19.072Z,19.15
2024-05-09T08:32:17.447Z,19.18
2024-05-09T08:33:17.988Z,19.22
2024-05-09T08:34:17.582Z,19.26
2024-05-09T08:35:17.448Z,19.30
2024-05-09T08:36:17.398Z,19.37
2024-05-09T08:37:22.381Z,19.44
2024-05-09T08:38:18.850Z,19.41
2024-05-09T08:39:17.756Z,19.47
2024-05-09T08:40:24.061Z,19.49
2024-05-09T08:41:18.776Z,19.52
2024-05-09T08:42:17.284Z,19.59
2024-05-09T08:43:17.402Z,19.64
2024-05-09T08:44:17.255Z,19.66
2024-05-09T08:45:17.734Z,19.71
2024-05-09T08:46:17.391Z,19.77
2024-05-09T08:47:17.253Z,19.85
2024-05-09T08:48:17.406Z,19.91
2024-05-09T08:49:17.336Z,20.02
2024-05-09T08:50:28.407Z,20.11
2024-05-09T08:51:18.764Z,20.18
2024-05-09T08:52:17.202Z,20.22
2024-05-09T08:53:17.167Z,20.28
2024-05-09T08:54:17.117Z,20.28
2024-05-09T08:55:17.528Z,20.19
2024-05-09T08:56:17.130Z,20.11
2024-05-09T08:57:17.116Z,20.06
2024-05-09T08:58:17.360Z,20.10
2024-05-09T08:59:17.095Z,20.14
2024-05-09T09:01:17.192Z,20.31
2024-05-09T09:02:17.212Z,20.37
2024-05-09T09:03:17.047Z,20.50
2024-05-09T09:04:17.222Z,20.50
2024-05-09T09:05:17.253Z,20.56
2024-05-09T09:06:17.407Z,20.60
2024-05-09T09:07:16.995Z,20.65
2024-05-09T09:09:19.657Z,20.51
2024-05-09T09:10:29.010Z,20.34
2024-05-09T09:11:20.999Z,20.26
2024-05-09T09:12:19.883Z,20.28
2024-05-09T09:13:19.509Z,20.22
2024-05-09T09:14:19.729Z,20.22
2024-05-09T09:15:19.427Z,20.24
2024-05-09T09:16:19.625Z,20.32
2024-05-09T09:17:19.389Z,20.44
2024-05-09T09:18:19.901Z,20.56
2024-05-09T09:19:19.536Z,20.66
2024-05-09T09:20:26.262Z,20.78
2024-05-09T09:21:20.860Z,20.93
2024-05-09T09:22:19.349Z,21.05
2024-05-09T09:23:19.691Z,21.17
2024-05-09T09:24:19.344Z,21.30
2024-05-09T09:25:19.320Z,21.43
2024-05-09T09:26:19.321Z,21.55
2024-05-09T09:27:19.371Z,21.66
2024-05-09T09:28:19.294Z,21.73
2024-05-09T09:29:19.675Z,21.76
2024-05-09T09:30:31.515Z,21.80
2024-05-09T09:31:20.704Z,21.80
2024-05-09T09:32:19.337Z,21.80
2024-05-09T09:33:19.267Z,21.85
2024-05-09T09:34:19.961Z,21.88
2024-05-09T09:35:19.144Z,21.91
2024-05-09T09:36:19.147Z,21.96
2024-05-09T09:37:19.294Z,22.06
2024-05-09T09:38:19.094Z,22.13
2024-05-09T09:39:19.096Z,22.15
2024-05-09T09:40:22.325Z,22.18
2024-05-09T09:41:20.584Z,22.25
2024-05-09T09:42:19.157Z,22.33
2024-05-09T09:43:19.300Z,22.35
2024-05-09T09:44:19.073Z,22.38
2024-05-09T09:45:19.415Z,22.43
2024-05-09T09:46:19.081Z,22.45
2024-05-09T09:47:19.198Z,22.53
2024-05-09T09:48:19.084Z,22.59
2024-05-09T09:49:19.155Z,22.63
2024-05-09T09:50:27.060Z,22.69
2024-05-09T09:51:21.713Z,22.73
2024-05-09T09:52:19.001Z,22.78
2024-05-09T09:53:19.006Z,22.88
2024-05-09T09:54:18.905Z,22.99
2024-05-09T09:55:19.064Z,23.03
2024-05-09T09:56:18.877Z,23.09
2024-05-09T09:57:19.283Z,23.15
2024-05-09T09:58:19.021Z,23.15
2024-05-09T09:59:19.028Z,23.10
2024-05-09T10:00:24.535Z,23.21
2024-05-09T10:01:20.458Z,23.27
2024-05-09T10:02:19.498Z,23.36
2024-05-09T10:03:19.163Z,23.48
2024-05-09T10:04:19.222Z,23.56
2024-05-09T10:05:18.835Z,23.66
2024-05-09T10:06:19.047Z,23.71
2024-05-09T10:07:19.198Z,23.66
2024-05-09T10:08:18.725Z,23.61
2024-05-09T10:09:18.738Z,23.59
2024-05-09T10:10:26.923Z,23.59
2024-05-09T10:11:20.298Z,23.48
2024-05-09T10:12:18.918Z,23.43
2024-05-09T10:13:19.317Z,23.39
2024-05-09T10:14:18.652Z,23.46
2024-05-09T10:15:18.844Z,23.48
2024-05-09T10:16:18.777Z,23.55
2024-05-09T10:17:18.672Z,23.66
2024-05-09T10:18:19.153Z,23.66
2024-05-09T10:19:18.793Z,23.74
2024-05-09T10:20:22.104Z,23.73
2024-05-09T10:21:20.172Z,23.73
2024-05-09T10:22:18.694Z,23.78
2024-05-09T10:23:18.954Z,23.86
2024-05-09T10:24:18.582Z,23.93
2024-05-09T10:25:18.575Z,24.01
2024-05-09T10:26:18.573Z,24.10
2024-05-09T10:27:18.609Z,24.21
2024-05-09T10:28:19.007Z,24.18
2024-05-09T10:29:18.565Z,24.21
2024-05-09T10:30:25.865Z,24.21
2024-05-09T10:31:20.078Z,24.23
2024-05-09T10:32:18.522Z,24.28
2024-05-09T10:33:18.520Z,24.29
2024-05-09T10:34:19.195Z,24.29
2024-05-09T10:35:18.433Z,24.29
2024-05-09T10:36:18.448Z,24.30
2024-05-09T10:37:19.137Z,24.35
2024-05-09T10:38:18.608Z,24.38
2024-05-09T10:39:18.712Z,24.39
2024-05-09T10:40:25.830Z,24.36
2024-05-09T10:41:19.895Z,24.39
2024-05-09T10:42:18.277Z,24.42
2024-05-09T10:43:18.570Z,24.51
2024-05-09T10:44:18.904Z,24.54
2024-05-09T10:45:18.246Z,24.57
2024-05-09T10:46:18.612Z,24.70
2024-05-09T10:47:18.302Z,24.81
2024-05-09T10:48:19.144Z,24.96
2024-05-09T10:49:18.357Z,25.08
2024-05-09T10:50:25.531Z,25.21
2024-05-09T10:51:19.800Z,25.13
2024-05-09T10:52:18.299Z,25.16
2024-05-09T10:53:18.289Z,25.13
2024-05-09T10:54:18.229Z,25.10
2024-05-09T10:55:18.711Z,25.26
2024-05-09T10:56:18.152Z,25.41
2024-05-09T10:57:18.145Z,25.62
2024-05-09T10:58:18.361Z,25.84
2024-05-09T10:59:18.124Z,25.70
2024-05-09T11:00:26.952Z,25.53
2024-05-09T11:01:20.097Z,25.73
2024-05-09T11:02:18.153Z,26.00
2024-05-09T11:03:18.141Z,26.33
2024-05-09T11:04:18.199Z,26.65
2024-05-09T11:05:19.510Z,26.97
2024-05-09T11:06:18.040Z,27.20
2024-05-09T11:07:18.531Z,27.29
2024-05-09T11:08:18.064Z,27.47
2024-05-09T11:09:18.015Z,27.77
2024-05-09T11:10:24.960Z,27.89
2024-05-09T11:11:19.602Z,27.48
2024-05-09T11:12:20.020Z,27.55
2024-05-09T11:13:17.976Z,27.73
2024-05-09T11:14:17.973Z,27.93
2024-05-09T11:15:18.044Z,28.07
2024-05-09T11:16:18.074Z,28.37
2024-05-09T11:17:18.365Z,28.76
2024-05-09T11:18:19.271Z,28.39
2024-05-09T11:19:18.022Z,28.78
2024-05-09T11:20:26.423Z,28.94
2024-05-09T11:21:19.304Z,28.44
2024-05-09T11:22:17.976Z,28.11
2024-05-09T11:23:18.227Z,28.07
2024-05-09T11:24:17.842Z,28.49
2024-05-09T11:25:17.892Z,29.02
2024-05-09T11:26:17.801Z,29.53
2024-05-09T11:27:17.900Z,30.19
2024-05-09T11:28:17.849Z,30.62
2024-05-09T11:29:19.572Z,30.83
2024-05-09T11:30:24.312Z,31.42
2024-05-09T11:31:19.507Z,31.49
2024-05-09T11:32:17.707Z,31.61
2024-05-09T11:33:17.978Z,31.77
2024-05-09T11:34:17.693Z,31.73
2024-05-09T11:35:18.261Z,31.85
2024-05-09T11:36:17.756Z,31.92
2024-05-09T11:37:17.965Z,32.37
2024-05-09T11:38:17.749Z,32.26
2024-05-09T11:39:17.681Z,32.46
2024-05-09T11:40:25.191Z,32.49
2024-05-09T11:41:19.520Z,32.68
2024-05-09T11:42:17.563Z,32.65
2024-05-09T11:43:17.689Z,32.52
2024-05-09T11:44:17.669Z,32.92
2024-05-09T11:45:18.328Z,33.19
2024-05-09T11:46:18.078Z,33.22
2024-05-09T11:47:17.620Z,33.30
2024-05-09T11:48:17.667Z,32.75
2024-05-09T11:49:17.746Z,32.30
2024-05-09T11:50:26.779Z,32.77
2024-05-09T11:51:19.153Z,33.22
2024-05-09T11:52:17.887Z,33.77
2024-05-09T11:53:17.503Z,34.29
2024-05-09T11:54:17.536Z,34.58
2024-05-09T11:55:17.916Z,34.73
2024-05-09T11:56:17.457Z,34.93
2024-05-09T11:57:17.461Z,35.23
2024-05-09T11:58:18.718Z,35.51
2024-05-09T11:59:17.353Z,35.67
2024-05-09T12:00:25.152Z,35.83
2024-05-09T12:01:19.386Z,35.97
2024-05-09T12:02:17.439Z,36.14
2024-05-09T12:03:17.357Z,36.33
2024-05-09T12:05:20.942Z,36.73
2024-05-09T12:06:20.733Z,36.93
2024-05-09T12:07:20.689Z,37.06
2024-05-09T12:08:20.786Z,37.15
2024-05-09T12:09:20.782Z,37.28
2024-05-09T12:10:26.063Z,37.36
2024-05-09T12:11:22.116Z,36.62
2024-05-09T12:12:20.589Z,36.47
2024-05-09T12:13:20.696Z,36.31
2024-05-09T12:14:21.752Z,36.42
2024-05-09T12:15:20.509Z,36.43
2024-05-09T12:16:21.714Z,36.54
2024-05-09T12:17:20.809Z,36.86
2024-05-09T12:18:21.287Z,37.06
2024-05-09T12:19:21.471Z,36.68
2024-05-09T12:20:28.558Z,36.95
2024-05-09T12:21:21.936Z,37.32
2024-05-09T12:22:21.107Z,37.20
2024-05-09T12:23:20.633Z,37.35
2024-05-09T12:24:20.523Z,37.53
2024-05-09T12:25:20.554Z,37.75
2024-05-09T12:26:20.405Z,37.97
2024-05-09T12:27:20.412Z,38.05
2024-05-09T12:28:21.153Z,38.20
2024-05-09T12:29:20.401Z,38.17
2024-05-09T12:30:32.258Z,38.06
2024-05-09T12:31:21.918Z,38.02
2024-05-09T12:32:20.441Z,38.02
2024-05-09T12:33:20.465Z,38.19
2024-05-09T12:34:20.777Z,38.36
2024-05-09T12:35:20.367Z,38.42
2024-05-09T12:36:20.418Z,38.43
2024-05-09T12:37:20.360Z,38.57
2024-05-09T12:38:20.293Z,38.76
2024-05-09T12:39:20.277Z,39.03
2024-05-09T12:40:26.867Z,38.92
2024-05-09T12:41:21.803Z,38.26
2024-05-09T12:42:27.080Z,38.01
2024-05-09T12:43:21.813Z,38.15
2024-05-09T12:44:20.216Z,38.24
2024-05-09T12:45:20.656Z,38.42
2024-05-09T12:46:20.328Z,38.65
2024-05-09T12:47:20.353Z,38.73
2024-05-09T12:48:20.339Z,38.97
2024-05-09T12:49:20.616Z,38.96
2024-05-09T12:50:29.130Z,39.04
2024-05-09T12:51:22.053Z,39.34
2024-05-09T12:52:20.199Z,39.58
2024-05-09T12:53:20.165Z,39.62
2024-05-09T12:54:20.162Z,39.77
2024-05-09T12:55:20.297Z,39.96
2024-05-09T12:56:20.516Z,40.06
2024-05-09T12:57:21.211Z,40.24
2024-05-09T12:58:20.137Z,39.83
2024-05-09T12:59:20.105Z,40.31
2024-05-09T13:00:27.202Z,40.41
2024-05-09T13:01:21.836Z,40.23
2024-05-09T13:02:20.669Z,38.55